sensor_id;sensor_type;location;lat;lon;timestamp;temperature;humidity
40504;DHT22;42292;49.048;8.374;2022-10-16T00:01:26;16.60;99.90
40504;DHT22;42292;49.048;8.374;2022-10-16T00:03:52;16.70;99.90
40504;DHT22;42292;49.048;8.374;2022-10-16T00:06:20;16.60;99.90
40504;DHT22;42292;49.048;8.374;2022-10-16T00:08:47;16.80;99.90
40504;DHT22;42292;49.048;8.374;2022-10-16T00:11:21;16.70;99.90
40504;DHT22;42292;49.048;8.374;2022-10-16T00:13:49;16.60;99.90
40504;DHT22;42292;49.048;8.374;2022-10-16T00:16:16;16.70;99.90
40504;DHT22;42292;49.048;8.374;2022-10-16T00:18:42;16.60;99.90
40504;DHT22;42292;49.048;8.374;2022-10-16T00:21:10;16.40;99.90
40504;DHT22;42292;49.048;8.374;2022-10-16T00:23:38;16.30;99.90
40504;DHT22;42292;49.048;8.374;2022-10-16T00:26:08;16.30;99.90
40504;DHT22;42292;49.048;8.374;2022-10-16T00:28:35;16.20;99.90
40504;DHT22;42292;49.048;8.374;2022-10-16T00:31:06;16.20;99.90
40504;DHT22;42292;49.048;8.374;2022-10-16T00:33:33;16.20;99.90
40504;DHT22;42292;49.048;8.374;2022-10-16T00:36:00;16.20;99.90
40504;DHT22;42292;49.048;8.374;2022-10-16T00:38:26;16.30;99.90
40504;DHT22;42292;49.048;8.374;2022-10-16T00:40:51;16.30;99.90
40504;DHT22;42292;49.048;8.374;2022-10-16T00:43:48;16.50;99.90
40504;DHT22;42292;49.048;8.374;2022-10-16T00:46:21;16.50;99.90
40504;DHT22;42292;49.048;8.374;2022-10-16T00:48:52;16.40;99.90
40504;DHT22;42292;49.048;8.374;2022-10-16T00:51:24;16.30;99.90
40504;DHT22;42292;49.048;8.374;2022-10-16T00:53:52;16.30;99.90
40504;DHT22;42292;49.048;8.374;2022-10-16T00:56:18;16.30;99.90
40504;DHT22;42292;49.048;8.374;2022-10-16T00:58:44;16.30;99.90
40504;DHT22;42292;49.048;8.374;2022-10-16T01:01:12;16.30;99.90
40504;DHT22;42292;49.048;8.374;2022-10-16T01:03:38;16.30;99.90
40504;DHT22;42292;49.048;8.374;2022-10-16T01:06:23;16.30;99.90
40504;DHT22;42292;49.048;8.374;2022-10-16T01:08:58;16.30;99.90
40504;DHT22;42292;49.048;8.374;2022-10-16T01:11:33;16.30;99.90
40504;DHT22;42292;49.048;8.374;2022-10-16T01:14:06;16.30;99.90
40504;DHT22;42292;49.048;8.374;2022-10-16T01:16:47;16.30;99.90
40504;DHT22;42292;49.048;8.374;2022-10-16T01:19:20;16.30;99.90
40504;DHT22;42292;49.048;8.374;2022-10-16T01:21:51;16.30;99.90
40504;DHT22;42292;49.048;8.374;2022-10-16T01:29:56;16.30;99.90
40504;DHT22;42292;49.048;8.374;2022-10-16T01:35:26;16.30;99.90
40504;DHT22;42292;49.048;8.374;2022-10-16T01:38:03;16.30;99.90
40504;DHT22;42292;49.048;8.374;2022-10-16T01:40:34;16.20;99.90
40504;DHT22;42292;49.048;8.374;2022-10-16T01:43:17;16.20;99.90
40504;DHT22;42292;49.048;8.374;2022-10-16T01:45:45;16.00;99.90
40504;DHT22;42292;49.048;8.374;2022-10-16T01:48:16;16.00;99.90
40504;DHT22;42292;49.048;8.374;2022-10-16T01:50:44;16.00;99.90
40504;DHT22;42292;49.048;8.374;2022-10-16T01:53:17;16.00;99.90
40504;DHT22;42292;49.048;8.374;2022-10-16T01:55:49;15.90;99.90
40504;DHT22;42292;49.048;8.374;2022-10-16T01:58:18;15.90;99.90
40504;DHT22;42292;49.048;8.374;2022-10-16T02:00:45;16.00;99.90
40504;DHT22;42292;49.048;8.374;2022-10-16T02:03:14;15.90;99.90
40504;DHT22;42292;49.048;8.374;2022-10-16T02:05:47;15.90;99.90
40504;DHT22;42292;49.048;8.374;2022-10-16T02:08:21;15.90;99.90
40504;DHT22;42292;49.048;8.374;2022-10-16T02:10:47;15.80;99.90
40504;DHT22;42292;49.048;8.374;2022-10-16T02:13:37;15.80;99.90
40504;DHT22;42292;49.048;8.374;2022-10-16T02:16:04;15.70;99.90
40504;DHT22;42292;49.048;8.374;2022-10-16T02:18:32;15.80;99.90
40504;DHT22;42292;49.048;8.374;2022-10-16T02:23:49;15.70;99.90
40504;DHT22;42292;49.048;8.374;2022-10-16T02:26:27;15.60;99.90
40504;DHT22;42292;49.048;8.374;2022-10-16T02:29:06;15.60;99.90
40504;DHT22;42292;49.048;8.374;2022-10-16T02:31:41;15.50;99.90
40504;DHT22;42292;49.048;8.374;2022-10-16T02:34:08;15.50;99.90
40504;DHT22;42292;49.048;8.374;2022-10-16T02:36:37;15.50;99.90
40504;DHT22;42292;49.048;8.374;2022-10-16T02:39:04;15.50;99.90
40504;DHT22;42292;49.048;8.374;2022-10-16T02:41:30;15.50;99.90
40504;DHT22;42292;49.048;8.374;2022-10-16T02:43:58;15.50;99.90
40504;DHT22;42292;49.048;8.374;2022-10-16T02:46:24;15.50;99.90
40504;DHT22;42292;49.048;8.374;2022-10-16T02:48:52;15.50;99.90
40504;DHT22;42292;49.048;8.374;2022-10-16T02:51:18;15.50;99.90
40504;DHT22;42292;49.048;8.374;2022-10-16T02:53:46;15.40;99.90
40504;DHT22;42292;49.048;8.374;2022-10-16T02:56:11;15.40;99.90
40504;DHT22;42292;49.048;8.374;2022-10-16T02:58:42;15.50;99.90
40504;DHT22;42292;49.048;8.374;2022-10-16T03:01:07;15.40;99.90
40504;DHT22;42292;49.048;8.374;2022-10-16T03:03:40;15.40;99.90
40504;DHT22;42292;49.048;8.374;2022-10-16T03:06:05;15.40;99.90
40504;DHT22;42292;49.048;8.374;2022-10-16T03:08:31;15.40;99.90
40504;DHT22;42292;49.048;8.374;2022-10-16T03:10:57;15.40;99.90
40504;DHT22;42292;49.048;8.374;2022-10-16T03:13:24;15.40;99.90
40504;DHT22;42292;49.048;8.374;2022-10-16T03:15:55;15.40;99.90
40504;DHT22;42292;49.048;8.374;2022-10-16T03:18:20;15.40;99.90
40504;DHT22;42292;49.048;8.374;2022-10-16T03:20:48;15.40;99.90
40504;DHT22;42292;49.048;8.374;2022-10-16T03:23:16;15.40;99.90
40504;DHT22;42292;49.048;8.374;2022-10-16T03:25:44;15.40;99.90
40504;DHT22;42292;49.048;8.374;2022-10-16T03:28:12;15.40;99.90
40504;DHT22;42292;49.048;8.374;2022-10-16T03:30:38;15.40;99.90
40504;DHT22;42292;49.048;8.374;2022-10-16T03:33:09;15.40;99.90
40504;DHT22;42292;49.048;8.374;2022-10-16T03:35:35;15.30;99.90
40504;DHT22;42292;49.048;8.374;2022-10-16T03:38:01;15.40;99.90
40504;DHT22;42292;49.048;8.374;2022-10-16T03:40:26;15.40;99.90
40504;DHT22;42292;49.048;8.374;2022-10-16T03:42:56;15.40;99.90
40504;DHT22;42292;49.048;8.374;2022-10-16T03:45:22;15.40;99.90
40504;DHT22;42292;49.048;8.374;2022-10-16T03:47:48;15.40;99.90
40504;DHT22;42292;49.048;8.374;2022-10-16T03:50:13;15.50;99.90
40504;DHT22;42292;49.048;8.374;2022-10-16T03:52:39;15.50;99.90
40504;DHT22;42292;49.048;8.374;2022-10-16T03:55:07;15.50;99.90
40504;DHT22;42292;49.048;8.374;2022-10-16T03:57:35;15.50;99.90
40504;DHT22;42292;49.048;8.374;2022-10-16T04:00:04;15.50;99.90
40504;DHT22;42292;49.048;8.374;2022-10-16T04:02:29;15.50;99.90
40504;DHT22;42292;49.048;8.374;2022-10-16T04:04:57;15.50;99.90
40504;DHT22;42292;49.048;8.374;2022-10-16T04:07:25;15.50;99.90
40504;DHT22;42292;49.048;8.374;2022-10-16T04:09:50;15.50;99.90
40504;DHT22;42292;49.048;8.374;2022-10-16T04:12:17;15.50;99.90
40504;DHT22;42292;49.048;8.374;2022-10-16T04:14:43;15.60;99.90
40504;DHT22;42292;49.048;8.374;2022-10-16T04:17:08;15.60;99.90
40504;DHT22;42292;49.048;8.374;2022-10-16T04:19:34;15.70;99.90
40504;DHT22;42292;49.048;8.374;2022-10-16T04:22:01;15.70;99.90
40504;DHT22;42292;49.048;8.374;2022-10-16T04:24:27;15.60;99.90
40504;DHT22;42292;49.048;8.374;2022-10-16T04:26:55;15.60;99.90
40504;DHT22;42292;49.048;8.374;2022-10-16T04:29:20;15.60;99.90
40504;DHT22;42292;49.048;8.374;2022-10-16T04:31:46;15.60;99.90
40504;DHT22;42292;49.048;8.374;2022-10-16T04:34:12;15.60;99.90
40504;DHT22;42292;49.048;8.374;2022-10-16T04:36:37;15.70;99.90
40504;DHT22;42292;49.048;8.374;2022-10-16T04:39:03;15.70;99.90
40504;DHT22;42292;49.048;8.374;2022-10-16T04:41:33;15.70;99.90
40504;DHT22;42292;49.048;8.374;2022-10-16T04:44:01;15.70;99.90
40504;DHT22;42292;49.048;8.374;2022-10-16T04:46:29;15.70;99.90
40504;DHT22;42292;49.048;8.374;2022-10-16T04:48:57;15.80;99.90
40504;DHT22;42292;49.048;8.374;2022-10-16T04:51:23;15.80;99.90
40504;DHT22;42292;49.048;8.374;2022-10-16T04:53:48;15.80;99.90
40504;DHT22;42292;49.048;8.374;2022-10-16T04:56:14;15.80;99.90
40504;DHT22;42292;49.048;8.374;2022-10-16T04:58:43;15.80;99.90
40504;DHT22;42292;49.048;8.374;2022-10-16T05:01:11;15.80;99.90
40504;DHT22;42292;49.048;8.374;2022-10-16T05:03:36;15.80;99.90
40504;DHT22;42292;49.048;8.374;2022-10-16T05:06:04;15.70;99.90
40504;DHT22;42292;49.048;8.374;2022-10-16T05:08:32;15.70;99.90
40504;DHT22;42292;49.048;8.374;2022-10-16T05:10:58;15.70;99.90
40504;DHT22;42292;49.048;8.374;2022-10-16T05:13:27;15.70;99.90
40504;DHT22;42292;49.048;8.374;2022-10-16T05:15:52;15.70;99.90
40504;DHT22;42292;49.048;8.374;2022-10-16T05:18:18;15.70;99.90
40504;DHT22;42292;49.048;8.374;2022-10-16T05:20:44;15.60;99.90
40504;DHT22;42292;49.048;8.374;2022-10-16T05:23:11;15.60;99.90
40504;DHT22;42292;49.048;8.374;2022-10-16T05:25:39;15.60;99.90
40504;DHT22;42292;49.048;8.374;2022-10-16T05:28:07;15.70;99.90
40504;DHT22;42292;49.048;8.374;2022-10-16T05:30:37;15.70;99.90
40504;DHT22;42292;49.048;8.374;2022-10-16T05:33:05;15.70;99.90
40504;DHT22;42292;49.048;8.374;2022-10-16T05:35:31;15.60;99.90
40504;DHT22;42292;49.048;8.374;2022-10-16T05:37:57;15.60;99.90
40504;DHT22;42292;49.048;8.374;2022-10-16T05:40:22;15.60;99.90
40504;DHT22;42292;49.048;8.374;2022-10-16T05:42:48;15.60;99.90
40504;DHT22;42292;49.048;8.374;2022-10-16T05:45:14;15.60;99.90
40504;DHT22;42292;49.048;8.374;2022-10-16T05:47:42;15.60;99.90
40504;DHT22;42292;49.048;8.374;2022-10-16T05:50:10;15.60;99.90
40504;DHT22;42292;49.048;8.374;2022-10-16T05:52:38;15.60;99.90
40504;DHT22;42292;49.048;8.374;2022-10-16T05:55:04;15.60;99.90
40504;DHT22;42292;49.048;8.374;2022-10-16T05:57:32;15.60;99.90
40504;DHT22;42292;49.048;8.374;2022-10-16T06:00:00;15.60;99.90
40504;DHT22;42292;49.048;8.374;2022-10-16T06:02:25;15.60;99.90
40504;DHT22;42292;49.048;8.374;2022-10-16T06:04:56;15.60;99.90
40504;DHT22;42292;49.048;8.374;2022-10-16T06:07:22;15.60;99.90
40504;DHT22;42292;49.048;8.374;2022-10-16T06:09:51;15.60;99.90
40504;DHT22;42292;49.048;8.374;2022-10-16T06:12:18;15.60;99.90
40504;DHT22;42292;49.048;8.374;2022-10-16T06:14:45;15.60;99.90
40504;DHT22;42292;49.048;8.374;2022-10-16T06:17:14;15.70;99.90
40504;DHT22;42292;49.048;8.374;2022-10-16T06:19:39;15.80;99.90
40504;DHT22;42292;49.048;8.374;2022-10-16T06:22:10;15.70;99.90
40504;DHT22;42292;49.048;8.374;2022-10-16T06:24:35;15.70;99.90
40504;DHT22;42292;49.048;8.374;2022-10-16T06:27:03;15.70;99.90
40504;DHT22;42292;49.048;8.374;2022-10-16T06:29:31;15.60;99.90
40504;DHT22;42292;49.048;8.374;2022-10-16T06:31:57;15.70;99.90
40504;DHT22;42292;49.048;8.374;2022-10-16T06:34:22;15.70;99.90
40504;DHT22;42292;49.048;8.374;2022-10-16T06:36:48;15.70;99.90
40504;DHT22;42292;49.048;8.374;2022-10-16T06:39:13;15.70;99.90
40504;DHT22;42292;49.048;8.374;2022-10-16T06:41:39;15.70;99.90
40504;DHT22;42292;49.048;8.374;2022-10-16T06:44:05;15.70;99.90
40504;DHT22;42292;49.048;8.374;2022-10-16T06:46:34;15.70;99.90
40504;DHT22;42292;49.048;8.374;2022-10-16T06:49:00;15.70;99.90
40504;DHT22;42292;49.048;8.374;2022-10-16T06:51:25;15.80;99.90
40504;DHT22;42292;49.048;8.374;2022-10-16T06:53:55;15.80;99.90
40504;DHT22;42292;49.048;8.374;2022-10-16T06:56:25;15.90;99.90
40504;DHT22;42292;49.048;8.374;2022-10-16T06:58:57;16.00;99.90
40504;DHT22;42292;49.048;8.374;2022-10-16T07:01:25;16.00;99.90
40504;DHT22;42292;49.048;8.374;2022-10-16T07:03:51;16.00;99.90
40504;DHT22;42292;49.048;8.374;2022-10-16T07:06:19;16.10;99.90
40504;DHT22;42292;49.048;8.374;2022-10-16T07:08:46;16.10;99.90
40504;DHT22;42292;49.048;8.374;2022-10-16T07:11:15;16.20;99.90
40504;DHT22;42292;49.048;8.374;2022-10-16T07:13:42;16.40;99.90
40504;DHT22;42292;49.048;8.374;2022-10-16T07:16:11;16.50;99.90
40504;DHT22;42292;49.048;8.374;2022-10-16T07:18:39;16.50;99.90
40504;DHT22;42292;49.048;8.374;2022-10-16T07:21:18;16.60;99.90
40504;DHT22;42292;49.048;8.374;2022-10-16T07:23:53;16.70;99.90
40504;DHT22;42292;49.048;8.374;2022-10-16T07:26:22;16.90;99.90
40504;DHT22;42292;49.048;8.374;2022-10-16T07:28:47;16.90;99.90
40504;DHT22;42292;49.048;8.374;2022-10-16T07:31:14;17.20;99.90
40504;DHT22;42292;49.048;8.374;2022-10-16T07:33:44;17.20;99.90
40504;DHT22;42292;49.048;8.374;2022-10-16T07:36:13;17.20;99.90
40504;DHT22;42292;49.048;8.374;2022-10-16T07:38:39;17.00;99.90
40504;DHT22;42292;49.048;8.374;2022-10-16T07:41:07;17.00;99.90
40504;DHT22;42292;49.048;8.374;2022-10-16T07:43:33;17.00;99.90
40504;DHT22;42292;49.048;8.374;2022-10-16T07:45:59;17.10;99.90
40504;DHT22;42292;49.048;8.374;2022-10-16T07:48:29;17.20;99.90
40504;DHT22;42292;49.048;8.374;2022-10-16T07:51:02;17.40;99.90
40504;DHT22;42292;49.048;8.374;2022-10-16T07:53:31;17.30;99.90
40504;DHT22;42292;49.048;8.374;2022-10-16T07:56:00;17.50;99.90
40504;DHT22;42292;49.048;8.374;2022-10-16T07:58:27;17.50;99.90
40504;DHT22;42292;49.048;8.374;2022-10-16T08:00:56;17.50;99.90
40504;DHT22;42292;49.048;8.374;2022-10-16T08:03:26;17.60;99.90
40504;DHT22;42292;49.048;8.374;2022-10-16T08:05:57;17.50;99.90
40504;DHT22;42292;49.048;8.374;2022-10-16T08:08:22;17.50;99.90
40504;DHT22;42292;49.048;8.374;2022-10-16T08:10:48;17.60;99.90
40504;DHT22;42292;49.048;8.374;2022-10-16T08:13:14;17.60;99.90
40504;DHT22;42292;49.048;8.374;2022-10-16T08:15:43;17.70;99.90
40504;DHT22;42292;49.048;8.374;2022-10-16T08:18:12;17.90;99.90
40504;DHT22;42292;49.048;8.374;2022-10-16T08:20:39;18.10;99.90
40504;DHT22;42292;49.048;8.374;2022-10-16T08:23:05;18.10;99.90
40504;DHT22;42292;49.048;8.374;2022-10-16T08:25:36;18.20;99.90
40504;DHT22;42292;49.048;8.374;2022-10-16T08:28:06;18.10;99.90
40504;DHT22;42292;49.048;8.374;2022-10-16T08:30:32;18.10;99.90
40504;DHT22;42292;49.048;8.374;2022-10-16T08:32:58;18.20;99.90
40504;DHT22;42292;49.048;8.374;2022-10-16T08:35:24;18.10;99.90
40504;DHT22;42292;49.048;8.374;2022-10-16T08:37:52;18.30;99.90
40504;DHT22;42292;49.048;8.374;2022-10-16T08:40:25;18.50;99.90
40504;DHT22;42292;49.048;8.374;2022-10-16T08:48:23;18.40;99.90
40504;DHT22;42292;49.048;8.374;2022-10-16T08:50:53;18.60;99.90
40504;DHT22;42292;49.048;8.374;2022-10-16T08:53:30;19.00;99.90
40504;DHT22;42292;49.048;8.374;2022-10-16T08:55:56;19.40;99.90
40504;DHT22;42292;49.048;8.374;2022-10-16T08:58:29;19.40;99.90
40504;DHT22;42292;49.048;8.374;2022-10-16T09:01:01;19.60;99.90
40504;DHT22;42292;49.048;8.374;2022-10-16T09:12:21;20.00;99.90
40504;DHT22;42292;49.048;8.374;2022-10-16T09:17:30;19.60;99.90
40504;DHT22;42292;49.048;8.374;2022-10-16T09:22:45;19.20;99.90
40504;DHT22;42292;49.048;8.374;2022-10-16T09:25:15;19.10;99.90
40504;DHT22;42292;49.048;8.374;2022-10-16T09:27:46;19.00;99.90
40504;DHT22;42292;49.048;8.374;2022-10-16T09:30:20;18.90;99.90
40504;DHT22;42292;49.048;8.374;2022-10-16T09:32:48;18.90;99.90
40504;DHT22;42292;49.048;8.374;2022-10-16T09:35:22;18.90;99.90
40504;DHT22;42292;49.048;8.374;2022-10-16T09:37:54;19.40;99.90
40504;DHT22;42292;49.048;8.374;2022-10-16T09:40:26;20.00;99.90
40504;DHT22;42292;49.048;8.374;2022-10-16T09:43:01;20.80;99.90
40504;DHT22;42292;49.048;8.374;2022-10-16T09:45:29;21.30;99.90
40504;DHT22;42292;49.048;8.374;2022-10-16T09:47:57;21.20;99.90
40504;DHT22;42292;49.048;8.374;2022-10-16T09:50:25;21.20;99.90
40504;DHT22;42292;49.048;8.374;2022-10-16T09:53:03;22.10;99.90
40504;DHT22;42292;49.048;8.374;2022-10-16T09:55:29;22.30;99.90
40504;DHT22;42292;49.048;8.374;2022-10-16T09:57:55;22.50;99.90
40504;DHT22;42292;49.048;8.374;2022-10-16T10:00:24;22.20;99.90
40504;DHT22;42292;49.048;8.374;2022-10-16T10:02:50;22.10;99.90
40504;DHT22;42292;49.048;8.374;2022-10-16T10:05:25;22.40;99.90
40504;DHT22;42292;49.048;8.374;2022-10-16T10:08:01;22.10;99.90
40504;DHT22;42292;49.048;8.374;2022-10-16T10:10:34;21.90;99.90
40504;DHT22;42292;49.048;8.374;2022-10-16T10:13:02;21.50;99.90
40504;DHT22;42292;49.048;8.374;2022-10-16T10:15:32;21.40;99.90
40504;DHT22;42292;49.048;8.374;2022-10-16T10:18:01;21.50;99.90
40504;DHT22;42292;49.048;8.374;2022-10-16T10:20:32;21.50;99.90
40504;DHT22;42292;49.048;8.374;2022-10-16T10:23:00;21.60;99.90
40504;DHT22;42292;49.048;8.374;2022-10-16T10:25:44;21.90;99.90
40504;DHT22;42292;49.048;8.374;2022-10-16T10:28:31;21.90;99.90
40504;DHT22;42292;49.048;8.374;2022-10-16T10:33:59;22.40;99.90
40504;DHT22;42292;49.048;8.374;2022-10-16T10:36:40;22.50;99.90
40504;DHT22;42292;49.048;8.374;2022-10-16T10:46:52;22.20;99.90
40504;DHT22;42292;49.048;8.374;2022-10-16T11:00:21;22.60;99.90
40504;DHT22;42292;49.048;8.374;2022-10-16T11:03:33;22.30;99.90
40504;DHT22;42292;49.048;8.374;2022-10-16T11:06:35;22.00;99.90
40504;DHT22;42292;49.048;8.374;2022-10-16T11:09:24;22.10;99.90
40504;DHT22;42292;49.048;8.374;2022-10-16T11:14:34;23.30;99.90
40504;DHT22;42292;49.048;8.374;2022-10-16T11:17:10;23.30;99.90
40504;DHT22;42292;49.048;8.374;2022-10-16T11:19:48;23.80;99.90
40504;DHT22;42292;49.048;8.374;2022-10-16T11:25:12;23.90;99.90
40504;DHT22;42292;49.048;8.374;2022-10-16T11:33:39;23.30;99.90
40504;DHT22;42292;49.048;8.374;2022-10-16T11:39:28;23.40;99.90
40504;DHT22;42292;49.048;8.374;2022-10-16T11:42:37;23.40;99.90
40504;DHT22;42292;49.048;8.374;2022-10-16T11:50:50;24.10;99.90
40504;DHT22;42292;49.048;8.374;2022-10-16T11:53:42;24.00;99.90
40504;DHT22;42292;49.048;8.374;2022-10-16T11:56:13;24.10;99.90
40504;DHT22;42292;49.048;8.374;2022-10-16T11:58:57;24.70;99.90
40504;DHT22;42292;49.048;8.374;2022-10-16T12:01:46;24.90;99.90
40504;DHT22;42292;49.048;8.374;2022-10-16T12:04:47;24.70;99.90
40504;DHT22;42292;49.048;8.374;2022-10-16T12:07:23;24.20;99.90
40504;DHT22;42292;49.048;8.374;2022-10-16T12:09:54;23.60;99.90
40504;DHT22;42292;49.048;8.374;2022-10-16T12:12:27;23.80;99.90
40504;DHT22;42292;49.048;8.374;2022-10-16T12:17:44;23.10;99.90
40504;DHT22;42292;49.048;8.374;2022-10-16T12:22:49;23.60;99.90
40504;DHT22;42292;49.048;8.374;2022-10-16T12:25:33;25.80;99.90
40504;DHT22;42292;49.048;8.374;2022-10-16T12:30:35;29.80;99.90
40504;DHT22;42292;49.048;8.374;2022-10-16T12:33:16;29.80;99.90
40504;DHT22;42292;49.048;8.374;2022-10-16T12:35:45;28.60;99.90
40504;DHT22;42292;49.048;8.374;2022-10-16T12:38:15;27.10;99.90
40504;DHT22;42292;49.048;8.374;2022-10-16T12:40:43;26.30;99.90
40504;DHT22;42292;49.048;8.374;2022-10-16T12:43:35;25.30;99.90
40504;DHT22;42292;49.048;8.374;2022-10-16T12:46:49;24.70;99.90
40504;DHT22;42292;49.048;8.374;2022-10-16T12:51:47;24.20;99.90
40504;DHT22;42292;49.048;8.374;2022-10-16T12:54:38;24.10;99.90
40504;DHT22;42292;49.048;8.374;2022-10-16T13:03:27;23.70;99.90
40504;DHT22;42292;49.048;8.374;2022-10-16T13:14:53;23.10;99.90
40504;DHT22;42292;49.048;8.374;2022-10-16T13:20:16;22.70;99.90
40504;DHT22;42292;49.048;8.374;2022-10-16T13:22:58;22.60;99.90
40504;DHT22;42292;49.048;8.374;2022-10-16T13:25:43;22.50;99.90
40504;DHT22;42292;49.048;8.374;2022-10-16T13:28:14;22.40;99.90
40504;DHT22;42292;49.048;8.374;2022-10-16T13:30:51;22.40;99.90
40504;DHT22;42292;49.048;8.374;2022-10-16T13:33:26;22.20;99.90
40504;DHT22;42292;49.048;8.374;2022-10-16T13:35:58;22.10;99.90
40504;DHT22;42292;49.048;8.374;2022-10-16T13:38:35;22.10;99.90
40504;DHT22;42292;49.048;8.374;2022-10-16T13:41:06;22.00;99.90
40504;DHT22;42292;49.048;8.374;2022-10-16T13:43:42;21.80;99.90
40504;DHT22;42292;49.048;8.374;2022-10-16T13:46:18;21.60;99.90
40504;DHT22;42292;49.048;8.374;2022-10-16T13:48:55;21.50;99.90
40504;DHT22;42292;49.048;8.374;2022-10-16T13:51:23;21.40;99.90
40504;DHT22;42292;49.048;8.374;2022-10-16T13:53:51;21.30;99.90
40504;DHT22;42292;49.048;8.374;2022-10-16T13:56:21;21.20;99.90
40504;DHT22;42292;49.048;8.374;2022-10-16T13:59:02;21.30;99.90
40504;DHT22;42292;49.048;8.374;2022-10-16T14:01:30;21.30;99.90
40504;DHT22;42292;49.048;8.374;2022-10-16T14:04:03;21.20;99.90
40504;DHT22;42292;49.048;8.374;2022-10-16T14:06:33;21.20;99.90
40504;DHT22;42292;49.048;8.374;2022-10-16T14:09:24;21.20;99.90
40504;DHT22;42292;49.048;8.374;2022-10-16T14:12:03;21.20;99.90
40504;DHT22;42292;49.048;8.374;2022-10-16T14:14:41;21.30;99.90
40504;DHT22;42292;49.048;8.374;2022-10-16T14:17:14;21.40;99.90
40504;DHT22;42292;49.048;8.374;2022-10-16T14:19:48;21.50;99.90
40504;DHT22;42292;49.048;8.374;2022-10-16T14:24:53;21.90;99.90
40504;DHT22;42292;49.048;8.374;2022-10-16T14:27:37;22.30;99.90
40504;DHT22;42292;49.048;8.374;2022-10-16T14:30:19;22.70;99.90
40504;DHT22;42292;49.048;8.374;2022-10-16T14:35:40;24.40;99.90
40504;DHT22;42292;49.048;8.374;2022-10-16T14:38:18;25.20;99.90
40504;DHT22;42292;49.048;8.374;2022-10-16T14:40:47;25.60;99.90
40504;DHT22;42292;49.048;8.374;2022-10-16T14:43:21;26.00;99.90
40504;DHT22;42292;49.048;8.374;2022-10-16T14:45:54;26.60;99.90
40504;DHT22;42292;49.048;8.374;2022-10-16T14:48:24;27.40;99.90
40504;DHT22;42292;49.048;8.374;2022-10-16T14:50:53;29.20;99.90
40504;DHT22;42292;49.048;8.374;2022-10-16T14:53:21;29.90;99.90
40504;DHT22;42292;49.048;8.374;2022-10-16T14:55:46;30.10;99.90
40504;DHT22;42292;49.048;8.374;2022-10-16T14:58:21;31.10;99.90
40504;DHT22;42292;49.048;8.374;2022-10-16T15:00:47;31.30;99.90
40504;DHT22;42292;49.048;8.374;2022-10-16T15:03:15;32.80;99.70
40504;DHT22;42292;49.048;8.374;2022-10-16T15:05:43;32.70;97.70
40504;DHT22;42292;49.048;8.374;2022-10-16T15:08:11;31.10;99.10
40504;DHT22;42292;49.048;8.374;2022-10-16T15:10:42;29.80;99.90
40504;DHT22;42292;49.048;8.374;2022-10-16T15:13:13;29.00;99.90
40504;DHT22;42292;49.048;8.374;2022-10-16T15:15:43;28.00;99.90
40504;DHT22;42292;49.048;8.374;2022-10-16T15:18:14;27.20;99.90
40504;DHT22;42292;49.048;8.374;2022-10-16T15:20:45;26.50;99.90
40504;DHT22;42292;49.048;8.374;2022-10-16T15:23:19;27.50;99.90
40504;DHT22;42292;49.048;8.374;2022-10-16T15:25:51;27.20;99.90
40504;DHT22;42292;49.048;8.374;2022-10-16T15:28:17;26.70;99.90
40504;DHT22;42292;49.048;8.374;2022-10-16T15:30:44;26.40;99.90
40504;DHT22;42292;49.048;8.374;2022-10-16T15:33:16;26.20;99.90
40504;DHT22;42292;49.048;8.374;2022-10-16T15:35:42;25.50;99.90
40504;DHT22;42292;49.048;8.374;2022-10-16T15:38:14;24.90;99.90
40504;DHT22;42292;49.048;8.374;2022-10-16T15:40:40;24.40;99.90
40504;DHT22;42292;49.048;8.374;2022-10-16T15:43:06;24.20;99.90
40504;DHT22;42292;49.048;8.374;2022-10-16T15:45:32;23.90;99.90
40504;DHT22;42292;49.048;8.374;2022-10-16T15:47:58;23.60;99.90
40504;DHT22;42292;49.048;8.374;2022-10-16T15:50:26;23.30;99.90
40504;DHT22;42292;49.048;8.374;2022-10-16T15:52:52;23.00;99.90
40504;DHT22;42292;49.048;8.374;2022-10-16T15:55:20;22.90;99.90
40504;DHT22;42292;49.048;8.374;2022-10-16T15:57:45;23.30;99.90
40504;DHT22;42292;49.048;8.374;2022-10-16T16:00:18;23.40;99.90
40504;DHT22;42292;49.048;8.374;2022-10-16T16:02:50;23.00;99.90
40504;DHT22;42292;49.048;8.374;2022-10-16T16:05:20;22.60;99.90
40504;DHT22;42292;49.048;8.374;2022-10-16T16:07:47;22.40;99.90
40504;DHT22;42292;49.048;8.374;2022-10-16T16:10:13;22.40;99.90
40504;DHT22;42292;49.048;8.374;2022-10-16T16:12:38;22.20;99.90
40504;DHT22;42292;49.048;8.374;2022-10-16T16:15:06;22.00;99.90
40504;DHT22;42292;49.048;8.374;2022-10-16T16:17:33;21.90;99.90
40504;DHT22;42292;49.048;8.374;2022-10-16T16:20:02;21.60;99.90
40504;DHT22;42292;49.048;8.374;2022-10-16T16:22:29;21.30;99.90
40504;DHT22;42292;49.048;8.374;2022-10-16T16:24:54;20.90;99.90
40504;DHT22;42292;49.048;8.374;2022-10-16T16:27:22;20.60;99.90
40504;DHT22;42292;49.048;8.374;2022-10-16T16:29:52;20.40;99.90
40504;DHT22;42292;49.048;8.374;2022-10-16T16:32:18;20.10;99.90
40504;DHT22;42292;49.048;8.374;2022-10-16T16:34:46;19.90;99.90
40504;DHT22;42292;49.048;8.374;2022-10-16T16:37:13;19.70;99.90
40504;DHT22;42292;49.048;8.374;2022-10-16T16:39:38;19.40;99.90
40504;DHT22;42292;49.048;8.374;2022-10-16T16:42:06;19.20;99.90
40504;DHT22;42292;49.048;8.374;2022-10-16T16:44:35;19.10;99.90
40504;DHT22;42292;49.048;8.374;2022-10-16T16:47:06;18.90;99.90
40504;DHT22;42292;49.048;8.374;2022-10-16T16:49:32;18.80;99.90
40504;DHT22;42292;49.048;8.374;2022-10-16T16:51:57;18.60;99.90
40504;DHT22;42292;49.048;8.374;2022-10-16T16:54:23;18.50;99.90
40504;DHT22;42292;49.048;8.374;2022-10-16T16:56:51;18.50;99.90
40504;DHT22;42292;49.048;8.374;2022-10-16T16:59:19;18.50;99.90
40504;DHT22;42292;49.048;8.374;2022-10-16T17:01:45;18.30;99.90
40504;DHT22;42292;49.048;8.374;2022-10-16T17:04:12;18.20;99.90
40504;DHT22;42292;49.048;8.374;2022-10-16T17:06:42;18.10;99.90
40504;DHT22;42292;49.048;8.374;2022-10-16T17:09:11;17.90;99.90
40504;DHT22;42292;49.048;8.374;2022-10-16T17:11:42;17.80;99.90
40504;DHT22;42292;49.048;8.374;2022-10-16T17:14:12;17.70;99.90
40504;DHT22;42292;49.048;8.374;2022-10-16T17:16:38;17.60;99.90
40504;DHT22;42292;49.048;8.374;2022-10-16T17:19:10;17.50;99.90
40504;DHT22;42292;49.048;8.374;2022-10-16T17:21:39;17.40;99.90
40504;DHT22;42292;49.048;8.374;2022-10-16T17:24:08;17.30;99.90
40504;DHT22;42292;49.048;8.374;2022-10-16T17:26:34;17.20;99.90
40504;DHT22;42292;49.048;8.374;2022-10-16T17:29:03;17.20;99.90
40504;DHT22;42292;49.048;8.374;2022-10-16T17:31:33;17.10;99.90
40504;DHT22;42292;49.048;8.374;2022-10-16T17:34:03;17.00;99.90
40504;DHT22;42292;49.048;8.374;2022-10-16T17:36:31;17.00;99.90